sensor_id;sensor_type;location;lat;lon;timestamp;P1;durP1;ratioP1;P2;durP2;ratioP2
42094;SDS011;27753;55.724;37.612;2022-10-16T00:01:30;9.10;;;5.25;;
42094;SDS011;27753;55.724;37.612;2022-10-16T00:03:57;15.48;;;4.53;;
42094;SDS011;27753;55.724;37.612;2022-10-16T00:06:24;7.07;;;4.65;;
42094;SDS011;27753;55.724;37.612;2022-10-16T00:08:51;7.40;;;5.22;;
42094;SDS011;27753;55.724;37.612;2022-10-16T00:13:45;7.22;;;4.47;;
42094;SDS011;27753;55.724;37.612;2022-10-16T00:16:13;10.30;;;5.28;;
42094;SDS011;27753;55.724;37.612;2022-10-16T00:18:41;7.93;;;5.55;;
42094;SDS011;27753;55.724;37.612;2022-10-16T00:21:12;8.25;;;4.63;;
42094;SDS011;27753;55.724;37.612;2022-10-16T00:23:40;8.77;;;4.57;;
42094;SDS011;27753;55.724;37.612;2022-10-16T00:26:07;8.40;;;5.30;;
42094;SDS011;27753;55.724;37.612;2022-10-16T00:28:36;5.82;;;4.22;;
42094;SDS011;27753;55.724;37.612;2022-10-16T00:31:06;7.35;;;4.32;;
42094;SDS011;27753;55.724;37.612;2022-10-16T00:33:34;7.43;;;4.85;;
42094;SDS011;27753;55.724;37.612;2022-10-16T00:36:00;7.25;;;4.03;;
42094;SDS011;27753;55.724;37.612;2022-10-16T00:38:27;6.60;;;5.10;;
42094;SDS011;27753;55.724;37.612;2022-10-16T00:40:53;6.00;;;4.38;;
42094;SDS011;27753;55.724;37.612;2022-10-16T00:43:33;9.27;;;5.05;;
42094;SDS011;27753;55.724;37.612;2022-10-16T00:46:00;6.18;;;4.50;;
42094;SDS011;27753;55.724;37.612;2022-10-16T00:48:26;5.03;;;3.72;;
42094;SDS011;27753;55.724;37.612;2022-10-16T00:50:52;8.73;;;4.90;;
42094;SDS011;27753;55.724;37.612;2022-10-16T00:53:19;8.30;;;4.45;;
42094;SDS011;27753;55.724;37.612;2022-10-16T00:55:45;8.35;;;4.95;;
42094;SDS011;27753;55.724;37.612;2022-10-16T00:58:12;5.90;;;4.25;;
42094;SDS011;27753;55.724;37.612;2022-10-16T01:00:38;6.20;;;4.03;;
42094;SDS011;27753;55.724;37.612;2022-10-16T01:03:21;12.02;;;5.00;;
42094;SDS011;27753;55.724;37.612;2022-10-16T01:05:53;8.10;;;4.85;;
42094;SDS011;27753;55.724;37.612;2022-10-16T01:08:22;7.20;;;4.10;;
42094;SDS011;27753;55.724;37.612;2022-10-16T01:11:01;9.07;;;5.15;;
42094;SDS011;27753;55.724;37.612;2022-10-16T01:13:33;8.90;;;4.28;;
42094;SDS011;27753;55.724;37.612;2022-10-16T01:19:01;6.88;;;4.30;;
42094;SDS011;27753;55.724;37.612;2022-10-16T01:21:40;6.80;;;4.43;;
42094;SDS011;27753;55.724;37.612;2022-10-16T01:29:42;5.88;;;4.38;;
42094;SDS011;27753;55.724;37.612;2022-10-16T01:32:40;8.10;;;4.20;;
42094;SDS011;27753;55.724;37.612;2022-10-16T01:38:10;7.40;;;4.70;;
42094;SDS011;27753;55.724;37.612;2022-10-16T01:40:44;10.15;;;5.50;;
42094;SDS011;27753;55.724;37.612;2022-10-16T01:43:14;7.78;;;4.53;;
42094;SDS011;27753;55.724;37.612;2022-10-16T01:45:45;9.50;;;5.47;;
42094;SDS011;27753;55.724;37.612;2022-10-16T01:48:16;7.43;;;5.18;;
42094;SDS011;27753;55.724;37.612;2022-10-16T01:50:48;10.18;;;4.90;;
42094;SDS011;27753;55.724;37.612;2022-10-16T01:53:16;8.25;;;5.05;;
42094;SDS011;27753;55.724;37.612;2022-10-16T01:55:44;11.45;;;4.95;;
42094;SDS011;27753;55.724;37.612;2022-10-16T01:58:11;10.00;;;5.22;;
42094;SDS011;27753;55.724;37.612;2022-10-16T02:00:39;9.00;;;5.28;;
42094;SDS011;27753;55.724;37.612;2022-10-16T02:03:06;13.30;;;5.18;;
42094;SDS011;27753;55.724;37.612;2022-10-16T02:05:46;8.13;;;4.88;;
42094;SDS011;27753;55.724;37.612;2022-10-16T02:08:13;8.50;;;5.38;;
42094;SDS011;27753;55.724;37.612;2022-10-16T02:10:39;9.05;;;4.65;;
42094;SDS011;27753;55.724;37.612;2022-10-16T02:15:31;10.43;;;5.68;;
42094;SDS011;27753;55.724;37.612;2022-10-16T02:17:57;6.13;;;4.50;;
42094;SDS011;27753;55.724;37.612;2022-10-16T02:20:25;11.20;;;6.10;;
42094;SDS011;27753;55.724;37.612;2022-10-16T02:22:52;8.75;;;5.13;;
42094;SDS011;27753;55.724;37.612;2022-10-16T02:25:25;9.63;;;5.97;;
42094;SDS011;27753;55.724;37.612;2022-10-16T02:27:54;6.35;;;5.60;;
42094;SDS011;27753;55.724;37.612;2022-10-16T02:30:24;7.57;;;5.47;;
42094;SDS011;27753;55.724;37.612;2022-10-16T02:32:51;14.63;;;6.30;;
42094;SDS011;27753;55.724;37.612;2022-10-16T02:35:19;8.23;;;5.60;;
42094;SDS011;27753;55.724;37.612;2022-10-16T02:37:46;9.60;;;5.93;;
42094;SDS011;27753;55.724;37.612;2022-10-16T02:40:12;11.17;;;4.93;;
42094;SDS011;27753;55.724;37.612;2022-10-16T02:42:39;8.95;;;5.80;;
42094;SDS011;27753;55.724;37.612;2022-10-16T02:45:07;9.18;;;5.07;;
42094;SDS011;27753;55.724;37.612;2022-10-16T02:47:33;6.85;;;5.20;;
42094;SDS011;27753;55.724;37.612;2022-10-16T02:49:59;9.07;;;6.43;;
42094;SDS011;27753;55.724;37.612;2022-10-16T02:52:25;10.02;;;5.28;;
42094;SDS011;27753;55.724;37.612;2022-10-16T02:54:51;6.95;;;5.35;;
42094;SDS011;27753;55.724;37.612;2022-10-16T02:57:18;11.45;;;5.30;;
42094;SDS011;27753;55.724;37.612;2022-10-16T02:59:44;11.75;;;5.15;;
42094;SDS011;27753;55.724;37.612;2022-10-16T03:02:10;7.82;;;5.35;;
42094;SDS011;27753;55.724;37.612;2022-10-16T03:04:36;9.85;;;5.55;;
42094;SDS011;27753;55.724;37.612;2022-10-16T03:07:03;9.65;;;5.78;;
42094;SDS011;27753;55.724;37.612;2022-10-16T03:09:29;9.30;;;5.28;;
42094;SDS011;27753;55.724;37.612;2022-10-16T03:11:55;8.88;;;5.03;;
42094;SDS011;27753;55.724;37.612;2022-10-16T03:14:21;9.52;;;4.82;;
42094;SDS011;27753;55.724;37.612;2022-10-16T03:16:47;6.03;;;4.13;;
42094;SDS011;27753;55.724;37.612;2022-10-16T03:19:13;8.80;;;4.22;;
42094;SDS011;27753;55.724;37.612;2022-10-16T03:21:39;7.78;;;4.65;;
42094;SDS011;27753;55.724;37.612;2022-10-16T03:24:06;7.88;;;5.22;;
42094;SDS011;27753;55.724;37.612;2022-10-16T03:26:31;7.18;;;4.60;;
42094;SDS011;27753;55.724;37.612;2022-10-16T03:28:57;8.38;;;5.07;;
42094;SDS011;27753;55.724;37.612;2022-10-16T03:31:23;7.53;;;4.22;;
42094;SDS011;27753;55.724;37.612;2022-10-16T03:33:49;6.63;;;3.90;;
42094;SDS011;27753;55.724;37.612;2022-10-16T03:36:15;8.18;;;4.72;;
42094;SDS011;27753;55.724;37.612;2022-10-16T03:38:41;7.25;;;4.75;;
42094;SDS011;27753;55.724;37.612;2022-10-16T03:41:06;8.27;;;4.90;;
42094;SDS011;27753;55.724;37.612;2022-10-16T03:43:33;7.05;;;5.38;;
42094;SDS011;27753;55.724;37.612;2022-10-16T03:45:58;6.93;;;4.85;;
42094;SDS011;27753;55.724;37.612;2022-10-16T03:48:24;7.25;;;4.63;;
42094;SDS011;27753;55.724;37.612;2022-10-16T03:50:50;8.07;;;4.63;;
42094;SDS011;27753;55.724;37.612;2022-10-16T03:53:16;8.63;;;5.35;;
42094;SDS011;27753;55.724;37.612;2022-10-16T03:55:43;7.15;;;4.97;;
42094;SDS011;27753;55.724;37.612;2022-10-16T03:58:10;6.88;;;4.50;;
42094;SDS011;27753;55.724;37.612;2022-10-16T04:00:40;12.40;;;4.77;;
42094;SDS011;27753;55.724;37.612;2022-10-16T04:03:07;9.18;;;4.65;;
42094;SDS011;27753;55.724;37.612;2022-10-16T04:05:33;10.20;;;5.40;;
42094;SDS011;27753;55.724;37.612;2022-10-16T04:07:59;7.72;;;4.50;;
42094;SDS011;27753;55.724;37.612;2022-10-16T04:10:25;7.97;;;4.53;;
42094;SDS011;27753;55.724;37.612;2022-10-16T04:12:51;7.40;;;4.47;;
42094;SDS011;27753;55.724;37.612;2022-10-16T04:15:17;7.55;;;5.30;;
42094;SDS011;27753;55.724;37.612;2022-10-16T04:17:43;9.20;;;4.43;;
42094;SDS011;27753;55.724;37.612;2022-10-16T04:20:08;9.07;;;5.65;;
42094;SDS011;27753;55.724;37.612;2022-10-16T04:22:34;6.93;;;5.00;;
42094;SDS011;27753;55.724;37.612;2022-10-16T04:25:00;9.20;;;5.35;;
42094;SDS011;27753;55.724;37.612;2022-10-16T04:27:26;8.60;;;5.20;;
42094;SDS011;27753;55.724;37.612;2022-10-16T04:29:53;5.93;;;4.70;;
42094;SDS011;27753;55.724;37.612;2022-10-16T04:32:19;10.18;;;5.03;;
42094;SDS011;27753;55.724;37.612;2022-10-16T04:34:44;7.82;;;4.35;;
42094;SDS011;27753;55.724;37.612;2022-10-16T04:37:10;11.25;;;5.72;;
42094;SDS011;27753;55.724;37.612;2022-10-16T04:39:36;8.25;;;4.60;;
42094;SDS011;27753;55.724;37.612;2022-10-16T04:42:02;10.23;;;5.50;;
42094;SDS011;27753;55.724;37.612;2022-10-16T04:44:28;11.25;;;4.75;;
42094;SDS011;27753;55.724;37.612;2022-10-16T04:46:54;9.48;;;5.25;;
42094;SDS011;27753;55.724;37.612;2022-10-16T04:49:19;6.38;;;4.53;;
42094;SDS011;27753;55.724;37.612;2022-10-16T04:51:45;13.07;;;5.05;;
42094;SDS011;27753;55.724;37.612;2022-10-16T04:54:11;6.75;;;4.03;;
42094;SDS011;27753;55.724;37.612;2022-10-16T04:56:37;8.52;;;4.53;;
42094;SDS011;27753;55.724;37.612;2022-10-16T04:59:11;8.95;;;4.82;;
42094;SDS011;27753;55.724;37.612;2022-10-16T05:01:37;11.52;;;5.18;;
42094;SDS011;27753;55.724;37.612;2022-10-16T05:04:02;6.95;;;4.78;;
42094;SDS011;27753;55.724;37.612;2022-10-16T05:06:29;8.93;;;4.55;;
42094;SDS011;27753;55.724;37.612;2022-10-16T05:08:55;10.52;;;5.07;;
42094;SDS011;27753;55.724;37.612;2022-10-16T05:11:21;8.63;;;5.80;;
42094;SDS011;27753;55.724;37.612;2022-10-16T05:13:46;9.80;;;5.03;;
42094;SDS011;27753;55.724;37.612;2022-10-16T05:16:12;8.75;;;5.63;;
42094;SDS011;27753;55.724;37.612;2022-10-16T05:18:38;8.98;;;5.10;;
42094;SDS011;27753;55.724;37.612;2022-10-16T05:21:04;6.68;;;5.20;;
42094;SDS011;27753;55.724;37.612;2022-10-16T05:23:31;8.23;;;5.53;;
42094;SDS011;27753;55.724;37.612;2022-10-16T05:25:58;11.55;;;5.70;;
42094;SDS011;27753;55.724;37.612;2022-10-16T05:30:51;10.03;;;5.07;;
42094;SDS011;27753;55.724;37.612;2022-10-16T05:33:19;7.07;;;4.80;;
42094;SDS011;27753;55.724;37.612;2022-10-16T05:35:48;7.28;;;5.25;;
42094;SDS011;27753;55.724;37.612;2022-10-16T05:38:15;7.30;;;5.55;;
42094;SDS011;27753;55.724;37.612;2022-10-16T05:40:41;11.45;;;5.38;;
42094;SDS011;27753;55.724;37.612;2022-10-16T05:43:08;9.95;;;5.57;;
42094;SDS011;27753;55.724;37.612;2022-10-16T05:45:33;7.80;;;5.25;;
42094;SDS011;27753;55.724;37.612;2022-10-16T05:48:00;10.00;;;5.80;;
42094;SDS011;27753;55.724;37.612;2022-10-16T05:50:26;12.48;;;6.95;;
42094;SDS011;27753;55.724;37.612;2022-10-16T05:52:52;9.77;;;5.88;;
42094;SDS011;27753;55.724;37.612;2022-10-16T05:55:18;14.00;;;6.55;;
42094;SDS011;27753;55.724;37.612;2022-10-16T05:57:44;14.48;;;5.85;;
42094;SDS011;27753;55.724;37.612;2022-10-16T06:00:10;12.10;;;6.13;;
42094;SDS011;27753;55.724;37.612;2022-10-16T06:02:36;12.73;;;6.07;;
42094;SDS011;27753;55.724;37.612;2022-10-16T06:05:02;10.48;;;6.13;;
42094;SDS011;27753;55.724;37.612;2022-10-16T06:07:29;14.15;;;7.00;;
42094;SDS011;27753;55.724;37.612;2022-10-16T06:09:55;11.98;;;7.07;;
42094;SDS011;27753;55.724;37.612;2022-10-16T06:12:21;14.45;;;6.07;;
42094;SDS011;27753;55.724;37.612;2022-10-16T06:14:47;11.13;;;5.90;;
42094;SDS011;27753;55.724;37.612;2022-10-16T06:17:14;12.75;;;6.15;;
42094;SDS011;27753;55.724;37.612;2022-10-16T06:19:40;9.77;;;7.32;;
42094;SDS011;27753;55.724;37.612;2022-10-16T06:22:06;12.95;;;7.40;;
42094;SDS011;27753;55.724;37.612;2022-10-16T06:24:35;10.82;;;6.85;;
42094;SDS011;27753;55.724;37.612;2022-10-16T06:27:04;11.10;;;6.75;;
42094;SDS011;27753;55.724;37.612;2022-10-16T06:29:31;10.18;;;7.30;;
42094;SDS011;27753;55.724;37.612;2022-10-16T06:31:57;13.88;;;7.25;;
42094;SDS011;27753;55.724;37.612;2022-10-16T06:34:23;11.43;;;7.78;;
42094;SDS011;27753;55.724;37.612;2022-10-16T06:36:49;14.90;;;6.75;;
42094;SDS011;27753;55.724;37.612;2022-10-16T06:39:15;9.38;;;6.95;;
42094;SDS011;27753;55.724;37.612;2022-10-16T06:41:41;13.85;;;8.13;;
42094;SDS011;27753;55.724;37.612;2022-10-16T06:44:08;12.27;;;6.72;;
42094;SDS011;27753;55.724;37.612;2022-10-16T06:46:34;14.52;;;6.15;;
42094;SDS011;27753;55.724;37.612;2022-10-16T06:49:00;10.45;;;6.85;;
42094;SDS011;27753;55.724;37.612;2022-10-16T06:51:26;10.70;;;7.05;;
42094;SDS011;27753;55.724;37.612;2022-10-16T06:53:53;14.20;;;7.95;;
42094;SDS011;27753;55.724;37.612;2022-10-16T06:56:25;12.40;;;6.78;;
42094;SDS011;27753;55.724;37.612;2022-10-16T06:58:52;13.63;;;7.28;;
42094;SDS011;27753;55.724;37.612;2022-10-16T07:01:19;14.38;;;7.05;;
42094;SDS011;27753;55.724;37.612;2022-10-16T07:03:45;13.00;;;7.03;;
42094;SDS011;27753;55.724;37.612;2022-10-16T07:06:13;8.03;;;6.50;;
42094;SDS011;27753;55.724;37.612;2022-10-16T07:08:40;13.10;;;6.70;;
42094;SDS011;27753;55.724;37.612;2022-10-16T07:11:08;16.23;;;6.25;;
42094;SDS011;27753;55.724;37.612;2022-10-16T07:13:37;12.00;;;6.82;;
42094;SDS011;27753;55.724;37.612;2022-10-16T07:16:07;11.43;;;6.55;;
42094;SDS011;27753;55.724;37.612;2022-10-16T07:18:34;9.45;;;5.85;;
42094;SDS011;27753;55.724;37.612;2022-10-16T07:21:10;13.40;;;5.93;;
42094;SDS011;27753;55.724;37.612;2022-10-16T07:23:36;12.93;;;5.50;;
42094;SDS011;27753;55.724;37.612;2022-10-16T07:26:03;15.73;;;5.78;;
42094;SDS011;27753;55.724;37.612;2022-10-16T07:28:29;10.93;;;5.95;;
42094;SDS011;27753;55.724;37.612;2022-10-16T07:31:00;6.88;;;5.03;;
42094;SDS011;27753;55.724;37.612;2022-10-16T07:33:26;12.23;;;5.82;;
42094;SDS011;27753;55.724;37.612;2022-10-16T07:35:53;7.30;;;4.97;;
42094;SDS011;27753;55.724;37.612;2022-10-16T07:38:19;13.90;;;6.43;;
42094;SDS011;27753;55.724;37.612;2022-10-16T07:40:45;9.88;;;5.47;;
42094;SDS011;27753;55.724;37.612;2022-10-16T07:43:12;19.92;;;6.35;;
42094;SDS011;27753;55.724;37.612;2022-10-16T07:45:46;8.20;;;6.30;;
42094;SDS011;27753;55.724;37.612;2022-10-16T07:48:12;11.70;;;6.65;;
42094;SDS011;27753;55.724;37.612;2022-10-16T07:50:38;9.68;;;5.75;;
42094;SDS011;27753;55.724;37.612;2022-10-16T07:53:05;17.23;;;6.20;;
42094;SDS011;27753;55.724;37.612;2022-10-16T07:55:31;14.02;;;6.00;;
42094;SDS011;27753;55.724;37.612;2022-10-16T07:57:57;15.23;;;7.82;;
42094;SDS011;27753;55.724;37.612;2022-10-16T08:00:23;10.63;;;6.30;;
42094;SDS011;27753;55.724;37.612;2022-10-16T08:02:49;11.25;;;6.20;;
42094;SDS011;27753;55.724;37.612;2022-10-16T08:05:15;8.40;;;4.85;;
42094;SDS011;27753;55.724;37.612;2022-10-16T08:07:42;11.57;;;5.75;;
42094;SDS011;27753;55.724;37.612;2022-10-16T08:10:26;10.40;;;5.75;;
42094;SDS011;27753;55.724;37.612;2022-10-16T08:12:53;12.43;;;5.88;;
42094;SDS011;27753;55.724;37.612;2022-10-16T08:15:19;12.35;;;5.53;;
42094;SDS011;27753;55.724;37.612;2022-10-16T08:17:59;11.50;;;5.57;;
42094;SDS011;27753;55.724;37.612;2022-10-16T08:20:26;8.93;;;5.60;;
42094;SDS011;27753;55.724;37.612;2022-10-16T08:22:52;8.67;;;5.53;;
42094;SDS011;27753;55.724;37.612;2022-10-16T08:25:19;13.80;;;5.68;;
42094;SDS011;27753;55.724;37.612;2022-10-16T08:27:46;12.25;;;5.72;;
42094;SDS011;27753;55.724;37.612;2022-10-16T08:30:13;9.40;;;5.43;;
42094;SDS011;27753;55.724;37.612;2022-10-16T08:32:43;7.03;;;5.55;;
42094;SDS011;27753;55.724;37.612;2022-10-16T08:35:12;14.30;;;6.10;;
42094;SDS011;27753;55.724;37.612;2022-10-16T08:37:38;11.23;;;4.70;;
42094;SDS011;27753;55.724;37.612;2022-10-16T08:40:12;13.55;;;5.80;;
42094;SDS011;27753;55.724;37.612;2022-10-16T08:45:21;6.60;;;4.00;;
42094;SDS011;27753;55.724;37.612;2022-10-16T08:47:49;11.45;;;5.68;;
42094;SDS011;27753;55.724;37.612;2022-10-16T08:50:22;11.18;;;5.55;;
42094;SDS011;27753;55.724;37.612;2022-10-16T08:52:55;6.97;;;4.50;;
42094;SDS011;27753;55.724;37.612;2022-10-16T08:55:27;8.23;;;4.80;;
42094;SDS011;27753;55.724;37.612;2022-10-16T08:58:14;6.70;;;4.53;;
42094;SDS011;27753;55.724;37.612;2022-10-16T09:00:41;11.32;;;4.60;;
42094;SDS011;27753;55.724;37.612;2022-10-16T09:13:48;12.30;;;4.57;;
42094;SDS011;27753;55.724;37.612;2022-10-16T09:16:18;15.52;;;7.25;;
42094;SDS011;27753;55.724;37.612;2022-10-16T09:21:40;11.90;;;4.88;;
42094;SDS011;27753;55.724;37.612;2022-10-16T09:24:13;14.75;;;4.05;;
42094;SDS011;27753;55.724;37.612;2022-10-16T09:26:41;11.45;;;5.00;;
42094;SDS011;27753;55.724;37.612;2022-10-16T09:29:10;11.65;;;4.60;;
42094;SDS011;27753;55.724;37.612;2022-10-16T09:31:41;12.70;;;4.82;;
42094;SDS011;27753;55.724;37.612;2022-10-16T09:34:12;9.30;;;3.67;;
42094;SDS011;27753;55.724;37.612;2022-10-16T09:37:03;6.70;;;4.15;;
42094;SDS011;27753;55.724;37.612;2022-10-16T09:39:46;7.55;;;3.83;;
42094;SDS011;27753;55.724;37.612;2022-10-16T09:42:21;10.32;;;3.83;;
42094;SDS011;27753;55.724;37.612;2022-10-16T09:44:52;10.13;;;4.13;;
42094;SDS011;27753;55.724;37.612;2022-10-16T09:49:59;11.00;;;4.85;;
42094;SDS011;27753;55.724;37.612;2022-10-16T09:52:29;9.85;;;3.53;;
42094;SDS011;27753;55.724;37.612;2022-10-16T09:55:00;8.63;;;4.38;;
42094;SDS011;27753;55.724;37.612;2022-10-16T09:57:28;5.10;;;3.53;;
42094;SDS011;27753;55.724;37.612;2022-10-16T09:59:56;7.68;;;4.20;;
42094;SDS011;27753;55.724;37.612;2022-10-16T10:02:27;6.15;;;3.78;;
42094;SDS011;27753;55.724;37.612;2022-10-16T10:04:58;6.60;;;4.03;;
42094;SDS011;27753;55.724;37.612;2022-10-16T10:07:25;7.47;;;5.05;;
42094;SDS011;27753;55.724;37.612;2022-10-16T10:09:58;13.68;;;6.13;;
42094;SDS011;27753;55.724;37.612;2022-10-16T10:12:26;7.30;;;4.00;;
42094;SDS011;27753;55.724;37.612;2022-10-16T10:14:55;8.02;;;4.03;;
42094;SDS011;27753;55.724;37.612;2022-10-16T10:17:24;6.32;;;4.55;;
42094;SDS011;27753;55.724;37.612;2022-10-16T10:19:52;9.82;;;4.30;;
42094;SDS011;27753;55.724;37.612;2022-10-16T10:39:11;7.82;;;3.85;;
42094;SDS011;27753;55.724;37.612;2022-10-16T10:55:40;5.45;;;4.15;;
42094;SDS011;27753;55.724;37.612;2022-10-16T11:01:14;7.05;;;4.25;;
42094;SDS011;27753;55.724;37.612;2022-10-16T11:03:59;6.25;;;4.05;;
42094;SDS011;27753;55.724;37.612;2022-10-16T11:07:02;5.28;;;3.22;;
42094;SDS011;27753;55.724;37.612;2022-10-16T11:10:09;4.95;;;3.58;;
42094;SDS011;27753;55.724;37.612;2022-10-16T11:12:42;12.85;;;4.10;;
42094;SDS011;27753;55.724;37.612;2022-10-16T11:15:15;7.40;;;4.95;;
42094;SDS011;27753;55.724;37.612;2022-10-16T11:20:31;9.27;;;4.65;;
42094;SDS011;27753;55.724;37.612;2022-10-16T11:23:01;6.45;;;3.83;;
42094;SDS011;27753;55.724;37.612;2022-10-16T11:25:29;6.07;;;3.88;;
42094;SDS011;27753;55.724;37.612;2022-10-16T11:30:44;7.20;;;3.65;;
42094;SDS011;27753;55.724;37.612;2022-10-16T11:35:56;7.10;;;4.47;;
42094;SDS011;27753;55.724;37.612;2022-10-16T11:38:49;10.35;;;4.70;;
42094;SDS011;27753;55.724;37.612;2022-10-16T11:41:32;6.05;;;4.03;;
42094;SDS011;27753;55.724;37.612;2022-10-16T11:44:06;7.90;;;3.35;;
42094;SDS011;27753;55.724;37.612;2022-10-16T11:46:52;9.10;;;4.13;;
42094;SDS011;27753;55.724;37.612;2022-10-16T11:49:31;7.97;;;4.03;;
42094;SDS011;27753;55.724;37.612;2022-10-16T11:52:07;6.25;;;3.50;;
42094;SDS011;27753;55.724;37.612;2022-10-16T11:57:36;16.55;;;6.78;;
42094;SDS011;27753;55.724;37.612;2022-10-16T12:00:27;6.07;;;4.18;;
42094;SDS011;27753;55.724;37.612;2022-10-16T12:02:58;6.75;;;3.60;;
42094;SDS011;27753;55.724;37.612;2022-10-16T12:08:27;7.78;;;4.22;;
42094;SDS011;27753;55.724;37.612;2022-10-16T12:11:05;7.27;;;4.43;;
42094;SDS011;27753;55.724;37.612;2022-10-16T12:13:47;6.40;;;3.78;;
42094;SDS011;27753;55.724;37.612;2022-10-16T12:18:39;7.32;;;3.55;;
42094;SDS011;27753;55.724;37.612;2022-10-16T12:21:07;8.02;;;4.53;;
42094;SDS011;27753;55.724;37.612;2022-10-16T12:23:39;10.07;;;4.63;;
42094;SDS011;27753;55.724;37.612;2022-10-16T12:26:29;10.18;;;4.72;;
42094;SDS011;27753;55.724;37.612;2022-10-16T12:29:13;12.68;;;4.65;;
42094;SDS011;27753;55.724;37.612;2022-10-16T12:31:47;14.13;;;5.63;;
42094;SDS011;27753;55.724;37.612;2022-10-16T12:34:22;8.52;;;4.50;;
42094;SDS011;27753;55.724;37.612;2022-10-16T12:36:49;8.82;;;4.65;;
42094;SDS011;27753;55.724;37.612;2022-10-16T12:39:33;18.13;;;4.78;;
42094;SDS011;27753;55.724;37.612;2022-10-16T12:42:04;11.55;;;5.22;;
42094;SDS011;27753;55.724;37.612;2022-10-16T12:44:44;11.68;;;5.05;;
42094;SDS011;27753;55.724;37.612;2022-10-16T12:47:21;8.18;;;4.00;;
42094;SDS011;27753;55.724;37.612;2022-10-16T12:49:56;8.52;;;5.15;;
42094;SDS011;27753;55.724;37.612;2022-10-16T12:54:58;8.57;;;4.35;;
42094;SDS011;27753;55.724;37.612;2022-10-16T12:57:30;11.23;;;5.55;;
42094;SDS011;27753;55.724;37.612;2022-10-16T13:00:24;8.05;;;4.75;;
42094;SDS011;27753;55.724;37.612;2022-10-16T13:06:11;10.43;;;4.85;;
42094;SDS011;27753;55.724;37.612;2022-10-16T13:09:02;5.43;;;4.15;;
42094;SDS011;27753;55.724;37.612;2022-10-16T13:19:37;7.53;;;4.50;;
42094;SDS011;27753;55.724;37.612;2022-10-16T13:27:45;8.40;;;4.90;;
42094;SDS011;27753;55.724;37.612;2022-10-16T13:32:39;7.10;;;5.22;;
42094;SDS011;27753;55.724;37.612;2022-10-16T13:35:18;7.00;;;3.85;;
42094;SDS011;27753;55.724;37.612;2022-10-16T13:37:45;10.57;;;4.78;;
42094;SDS011;27753;55.724;37.612;2022-10-16T13:40:19;6.18;;;4.53;;
42094;SDS011;27753;55.724;37.612;2022-10-16T13:42:45;7.30;;;4.72;;
42094;SDS011;27753;55.724;37.612;2022-10-16T13:45:21;9.85;;;4.70;;
42094;SDS011;27753;55.724;37.612;2022-10-16T13:47:48;13.57;;;5.68;;
42094;SDS011;27753;55.724;37.612;2022-10-16T13:50:15;10.75;;;4.75;;
42094;SDS011;27753;55.724;37.612;2022-10-16T13:52:42;13.38;;;5.47;;
42094;SDS011;27753;55.724;37.612;2022-10-16T13:55:12;9.48;;;4.45;;
42094;SDS011;27753;55.724;37.612;2022-10-16T13:57:38;8.15;;;4.22;;
42094;SDS011;27753;55.724;37.612;2022-10-16T14:00:24;6.85;;;4.20;;
42094;SDS011;27753;55.724;37.612;2022-10-16T14:03:05;12.38;;;5.93;;
42094;SDS011;27753;55.724;37.612;2022-10-16T14:05:40;8.40;;;4.30;;
42094;SDS011;27753;55.724;37.612;2022-10-16T14:08:09;6.72;;;4.43;;
42094;SDS011;27753;55.724;37.612;2022-10-16T14:10:36;11.40;;;6.10;;
42094;SDS011;27753;55.724;37.612;2022-10-16T14:13:03;8.40;;;4.30;;
42094;SDS011;27753;55.724;37.612;2022-10-16T14:17:56;4.40;;;3.42;;
42094;SDS011;27753;55.724;37.612;2022-10-16T14:20:27;9.02;;;4.20;;
42094;SDS011;27753;55.724;37.612;2022-10-16T14:23:04;9.18;;;5.40;;
42094;SDS011;27753;55.724;37.612;2022-10-16T14:25:31;13.00;;;6.30;;
42094;SDS011;27753;55.724;37.612;2022-10-16T14:28:04;17.42;;;9.25;;
42094;SDS011;27753;55.724;37.612;2022-10-16T14:30:33;10.15;;;5.38;;
42094;SDS011;27753;55.724;37.612;2022-10-16T14:33:03;11.45;;;6.68;;
42094;SDS011;27753;55.724;37.612;2022-10-16T14:35:31;10.38;;;5.60;;
42094;SDS011;27753;55.724;37.612;2022-10-16T14:37:59;7.70;;;4.55;;
42094;SDS011;27753;55.724;37.612;2022-10-16T14:40:29;11.75;;;6.15;;
42094;SDS011;27753;55.724;37.612;2022-10-16T14:42:56;11.82;;;6.57;;
42094;SDS011;27753;55.724;37.612;2022-10-16T14:45:23;12.05;;;6.38;;
42094;SDS011;27753;55.724;37.612;2022-10-16T14:47:50;14.07;;;6.38;;
42094;SDS011;27753;55.724;37.612;2022-10-16T14:50:18;9.23;;;5.50;;
42094;SDS011;27753;55.724;37.612;2022-10-16T14:52:44;9.13;;;5.85;;
42094;SDS011;27753;55.724;37.612;2022-10-16T14:55:10;13.45;;;5.50;;
42094;SDS011;27753;55.724;37.612;2022-10-16T14:57:37;8.27;;;5.82;;
42094;SDS011;27753;55.724;37.612;2022-10-16T15:00:09;15.02;;;9.13;;
42094;SDS011;27753;55.724;37.612;2022-10-16T15:02:39;18.60;;;7.82;;
42094;SDS011;27753;55.724;37.612;2022-10-16T15:07:37;14.23;;;6.05;;
42094;SDS011;27753;55.724;37.612;2022-10-16T15:10:04;9.65;;;5.65;;
42094;SDS011;27753;55.724;37.612;2022-10-16T15:12:30;8.13;;;5.22;;
42094;SDS011;27753;55.724;37.612;2022-10-16T15:14:56;9.13;;;4.80;;
42094;SDS011;27753;55.724;37.612;2022-10-16T15:17:22;10.25;;;6.00;;
42094;SDS011;27753;55.724;37.612;2022-10-16T15:19:48;10.20;;;5.78;;
42094;SDS011;27753;55.724;37.612;2022-10-16T15:22:16;10.90;;;5.13;;
42094;SDS011;27753;55.724;37.612;2022-10-16T15:24:43;7.47;;;5.20;;
42094;SDS011;27753;55.724;37.612;2022-10-16T15:27:09;9.40;;;6.10;;
42094;SDS011;27753;55.724;37.612;2022-10-16T15:29:35;10.15;;;5.07;;
42094;SDS011;27753;55.724;37.612;2022-10-16T15:32:01;11.77;;;4.70;;
42094;SDS011;27753;55.724;37.612;2022-10-16T15:34:27;11.35;;;5.30;;
42094;SDS011;27753;55.724;37.612;2022-10-16T15:36:56;9.10;;;4.75;;
42094;SDS011;27753;55.724;37.612;2022-10-16T15:41:50;8.55;;;5.68;;
42094;SDS011;27753;55.724;37.612;2022-10-16T15:44:18;12.25;;;6.53;;
42094;SDS011;27753;55.724;37.612;2022-10-16T15:46:44;11.23;;;4.80;;
42094;SDS011;27753;55.724;37.612;2022-10-16T15:49:11;11.13;;;7.05;;
42094;SDS011;27753;55.724;37.612;2022-10-16T15:51:38;9.70;;;5.70;;
42094;SDS011;27753;55.724;37.612;2022-10-16T15:54:04;11.52;;;5.53;;
42094;SDS011;27753;55.724;37.612;2022-10-16T15:56:31;7.88;;;4.65;;
42094;SDS011;27753;55.724;37.612;2022-10-16T15:58:58;9.63;;;5.88;;
42094;SDS011;27753;55.724;37.612;2022-10-16T16:01:25;9.00;;;6.13;;
42094;SDS011;27753;55.724;37.612;2022-10-16T16:03:54;11.45;;;5.88;;
42094;SDS011;27753;55.724;37.612;2022-10-16T16:06:21;9.27;;;6.35;;
42094;SDS011;27753;55.724;37.612;2022-10-16T16:08:50;12.20;;;5.85;;
42094;SDS011;27753;55.724;37.612;2022-10-16T16:11:17;13.82;;;6.30;;
42094;SDS011;27753;55.724;37.612;2022-10-16T16:13:43;9.60;;;5.63;;
42094;SDS011;27753;55.724;37.612;2022-10-16T16:16:15;14.32;;;6.57;;
42094;SDS011;27753;55.724;37.612;2022-10-16T16:18:42;9.80;;;5.88;;
42094;SDS011;27753;55.724;37.612;2022-10-16T16:21:10;7.68;;;6.07;;
42094;SDS011;27753;55.724;37.612;2022-10-16T16:23:36;8.90;;;6.22;;
42094;SDS011;27753;55.724;37.612;2022-10-16T16:26:10;14.68;;;9.43;;
42094;SDS011;27753;55.724;37.612;2022-10-16T16:28:37;14.40;;;7.15;;
42094;SDS011;27753;55.724;37.612;2022-10-16T16:31:03;9.95;;;5.63;;
42094;SDS011;27753;55.724;37.612;2022-10-16T16:33:30;8.77;;;5.47;;
42094;SDS011;27753;55.724;37.612;2022-10-16T16:35:57;11.00;;;5.68;;
42094;SDS011;27753;55.724;37.612;2022-10-16T16:38:27;9.95;;;6.18;;